Time;durP1;ratioP1;P1;durP2;ratioP2;P2;SDS_P1;SDS_P2;PMS_P1;PMS_P2;Temp;Humidity;BMP_temperature;BMP_pressure;BME280_temperature;BME280_humidity;BME280_pressure;Samples;Min_cycle;Max_cycle;Signal;HPM_P1;HPM_P2
2021/12/21 00:02:11;;;;;;;4.07;2.03;;;;;;;-2.46;75.64;95625.50;1640705;87;21057;-67
2021/12/21 00:04:37;;;;;;;2.67;1.93;;;;;;;-2.53;74.49;95626.13;1640612;87;21007;-67
2021/12/21 00:07:05;;;;;;;2.10;1.87;;;;;;;-2.52;74.09;95634.33;1640966;87;21043;-67
2021/12/21 00:09:32;;;;;;;3.20;2.40;;;;;;;-2.56;74.04;95632.49;1640574;87;21141;-67
2021/12/21 00:12:00;;;;;;;3.53;2.03;;;;;;;-2.64;73.93;95641.28;1640479;87;21038;-67
2021/12/21 00:14:45;;;;;;;2.73;1.40;;;;;;;-2.72;73.73;95640.13;1640475;87;21058;-67
2021/12/21 00:22:27;;;;;;;2.67;1.67;;;;;;;-2.75;72.12;95638.75;1640807;87;21047;-67
2021/12/21 00:24:45;;;;;;;3.20;2.30;;;;;;;-2.75;72.28;95655.12;1637826;87;21090;-68
2021/12/21 00:27:08;;;;;;;5.07;2.70;;;;;;;-2.78;72.90;95656.31;1639617;87;21564;-67
2021/12/21 00:29:34;;;;;;;3.80;2.10;;;;;;;-2.81;73.48;95660.52;1640611;87;21596;-67
2021/12/21 00:32:00;;;;;;;3.83;2.33;;;;;;;-2.82;73.28;95659.64;1640165;87;21138;-67
2021/12/21 00:34:27;;;;;;;3.63;2.40;;;;;;;-2.86;73.55;95662.52;1640765;87;21537;-67
2021/12/21 00:36:53;;;;;;;3.83;2.13;;;;;;;-2.89;73.53;95664.13;1640749;87;21082;-67
2021/12/21 00:39:20;;;;;;;4.83;2.40;;;;;;;-2.88;73.36;95675.78;1640765;87;21061;-67
2021/12/21 00:41:46;;;;;;;3.27;2.17;;;;;;;-2.94;73.15;95682.04;1640435;87;21081;-68
2021/12/21 00:44:13;;;;;;;5.33;2.97;;;;;;;-2.95;73.45;95691.01;1640822;87;21035;-67
2021/12/21 00:46:40;;;;;;;6.17;3.27;;;;;;;-3.01;73.75;95692.97;1640579;87;21053;-67
2021/12/21 00:49:17;;;;;;;3.53;2.70;;;;;;;-3.04;73.37;95694.16;1640755;87;21030;-67
2021/12/21 00:51:48;;;;;;;4.77;2.43;;;;;;;-3.05;73.62;95711.36;1640761;87;21544;-67
2021/12/21 00:54:16;;;;;;;3.57;2.47;;;;;;;-3.11;73.57;95715.00;1640465;87;21034;-67
2021/12/21 00:56:43;;;;;;;3.00;2.30;;;;;;;-3.18;73.36;95724.63;1640565;87;21162;-67
2021/12/21 00:59:09;;;;;;;4.70;2.60;;;;;;;-3.19;73.03;95735.79;1620196;87;21121;-67
2021/12/21 01:01:40;;;;;;;3.37;2.40;;;;;;;-3.25;72.60;95734.30;1640760;87;20990;-66
2021/12/21 01:04:11;;;;;;;3.87;2.07;;;;;;;-3.33;71.86;95749.46;1640546;87;21500;-67
2021/12/21 01:06:57;;;;;;;3.70;2.30;;;;;;;-3.41;71.91;95739.28;1640321;87;21031;-67
2021/12/21 01:09:23;;;;;;;6.80;2.90;;;;;;;-3.43;71.53;95747.36;1638173;87;21532;-67
2021/12/21 01:11:47;;;;;;;4.37;2.20;;;;;;;-3.47;72.17;95753.67;1638228;87;21461;-67
2021/12/21 01:16:51;;;;;;;6.40;2.67;;;;;;;-3.58;71.94;95751.95;1640663;87;21158;-67
2021/12/21 01:19:16;;;;;;;3.83;2.27;;;;;;;-3.59;71.32;95750.20;1639689;87;21018;-67
2021/12/21 01:21:59;;;;;;;4.13;2.17;;;;;;;-3.63;71.86;95758.22;1641664;87;21065;-67
2021/12/21 01:29:58;;;;;;;5.17;3.07;;;;;;;-3.74;70.75;95765.55;1640283;87;21130;-66
2021/12/21 01:31:56;;;;;;;4.50;2.53;;;;;;;-3.74;70.92;95760.81;1627643;87;21075;-67
2021/12/21 01:34:37;;;;;;;4.23;2.73;;;;;;;-3.73;71.37;95775.06;1639511;87;21042;-67
2021/12/21 01:37:04;;;;;;;4.37;2.80;;;;;;;-3.77;71.01;95773.17;1638498;87;21061;-66
2021/12/21 01:42:29;;;;;;;4.20;2.57;;;;;;;-3.77;71.34;95786.48;1640557;87;21500;-66
2021/12/21 01:50:16;;;;;;;4.17;2.60;;;;;;;-3.94;70.50;95787.10;1640556;87;21545;-66
2021/12/21 01:52:43;;;;;;;3.40;2.40;;;;;;;-4.01;69.98;95796.69;1640936;87;21011;-66
2021/12/21 01:55:09;;;;;;;3.50;2.30;;;;;;;-4.09;69.19;95804.11;1640733;87;21030;-67
2021/12/21 01:57:36;;;;;;;4.23;2.73;;;;;;;-4.16;69.32;95801.72;1640603;87;20991;-66
2021/12/21 02:00:06;;;;;;;4.30;2.47;;;;;;;-4.20;68.74;95812.70;1640869;87;21050;-66
2021/12/21 02:02:33;;;;;;;3.37;1.93;;;;;;;-4.29;68.31;95812.31;1640900;87;21034;-66
2021/12/21 02:04:59;;;;;;;2.57;2.03;;;;;;;-4.33;68.21;95822.03;1640726;87;21070;-66
2021/12/21 02:07:26;;;;;;;3.60;2.10;;;;;;;-4.44;68.60;95821.56;1640850;87;21528;-66
2021/12/21 02:09:53;;;;;;;7.10;2.63;;;;;;;-4.51;67.49;95830.25;1641296;87;21571;-67
2021/12/21 02:12:22;;;;;;;3.07;1.83;;;;;;;-4.57;67.43;95834.33;1646226;87;21046;-66
2021/12/21 02:15:00;;;;;;;3.20;1.70;;;;;;;-4.68;67.29;95835.58;1646214;87;21069;-66
2021/12/21 02:20:39;;;;;;;3.80;2.60;;;;;;;-4.78;66.19;95834.70;1646276;87;21106;-66
2021/12/21 02:23:07;;;;;;;4.20;1.73;;;;;;;-4.81;65.89;95838.44;1642500;87;21086;-66
2021/12/21 02:28:10;;;;;;;3.07;1.67;;;;;;;-5.02;64.89;95845.66;1646040;87;21042;-67
2021/12/21 02:30:27;;;;;;;3.33;1.67;;;;;;;-5.06;65.42;95841.63;1645758;87;21094;-66
2021/12/21 02:32:54;;;;;;;3.37;2.00;;;;;;;-5.10;65.01;95853.45;1645979;87;21053;-66
2021/12/21 02:35:20;;;;;;;3.47;2.10;;;;;;;-5.09;64.73;95849.17;1620004;87;21093;-66
2021/12/21 02:37:47;;;;;;;5.23;2.07;;;;;;;-5.07;64.93;95865.56;1646218;87;21129;-66
2021/12/21 02:40:13;;;;;;;4.50;2.30;;;;;;;-5.09;65.09;95867.19;1645950;87;21003;-66
2021/12/21 02:42:40;;;;;;;3.83;1.90;;;;;;;-5.09;65.46;95870.66;1645774;87;21117;-66
2021/12/21 02:45:08;;;;;;;2.97;1.77;;;;;;;-5.06;64.73;95876.36;1646087;87;21050;-66
2021/12/21 02:47:34;;;;;;;5.33;1.97;;;;;;;-5.08;64.22;95874.11;1646206;87;21078;-66
2021/12/21 02:50:01;;;;;;;3.40;2.10;;;;;;;-5.10;64.32;95886.02;1646214;87;21038;-66
2021/12/21 02:52:27;;;;;;;2.70;1.80;;;;;;;-5.12;64.25;95887.22;1646024;87;21564;-66
2021/12/21 02:54:54;;;;;;;2.50;1.70;;;;;;;-5.13;63.99;95900.91;1646220;87;21061;-66
2021/12/21 02:57:21;;;;;;;2.70;1.93;;;;;;;-5.14;64.29;95896.97;1645774;87;21069;-66
2021/12/21 02:59:47;;;;;;;3.03;1.77;;;;;;;-5.20;63.91;95899.27;1646114;87;20990;-66
2021/12/21 03:02:14;;;;;;;3.90;2.37;;;;;;;-5.14;64.86;95912.41;1645894;87;21062;-66
2021/12/21 03:04:45;;;;;;;4.37;2.33;;;;;;;-5.14;64.76;95909.45;1646281;87;21057;-66
2021/12/21 03:10:01;;;;;;;3.10;1.60;;;;;;;-5.19;64.69;95914.79;1646343;87;21049;-66
2021/12/21 03:15:11;;;;;;;4.50;1.93;;;;;;;-5.27;63.67;95921.24;1646061;87;20990;-66
2021/12/21 03:17:37;;;;;;;2.77;1.67;;;;;;;-5.26;63.47;95929.05;1646271;87;21038;-66
2021/12/21 03:20:06;;;;;;;2.83;1.50;;;;;;;-5.32;62.57;95932.59;1645694;87;21065;-66
2021/12/21 03:22:32;;;;;;;1.90;1.03;;;;;;;-5.37;62.19;95930.21;1646237;87;21492;-66
2021/12/21 03:24:59;;;;;;;2.30;1.60;;;;;;;-5.44;60.41;95926.90;1646424;87;21067;-66
2021/12/21 03:27:25;;;;;;;2.50;1.63;;;;;;;-5.50;61.21;95929.16;1645983;87;21543;-66
2021/12/21 03:29:52;;;;;;;2.17;1.50;;;;;;;-5.55;61.58;95936.65;1646361;87;21058;-67
2021/12/21 03:32:18;;;;;;;3.03;1.40;;;;;;;-5.61;61.76;95934.20;1646206;87;21074;-66
2021/12/21 03:34:45;;;;;;;1.67;1.27;;;;;;;-5.63;61.04;95938.39;1646167;87;21007;-67
2021/12/21 03:37:14;;;;;;;2.30;1.50;;;;;;;-5.66;61.30;95943.84;1646071;87;21082;-66
2021/12/21 03:39:43;;;;;;;2.23;0.70;;;;;;;-5.62;61.91;95950.42;1646281;87;21579;-66
2021/12/21 03:42:12;;;;;;;1.10;0.80;;;;;;;-5.60;61.84;95948.40;1645990;87;21480;-66
2021/12/21 03:44:39;;;;;;;1.90;1.20;;;;;;;-5.66;59.72;95944.27;1646020;87;21058;-67
2021/12/21 03:47:10;;;;;;;1.87;1.27;;;;;;;-5.71;60.33;95945.72;1646065;87;20995;-66
2021/12/21 03:52:17;;;;;;;1.50;1.10;;;;;;;-5.79;60.41;95948.33;1646163;87;21385;-66
2021/12/21 03:54:48;;;;;;;1.83;0.93;;;;;;;-5.88;59.75;95947.45;1646108;87;21058;-66
2021/12/21 03:57:16;;;;;;;2.60;1.03;;;;;;;-5.88;59.00;95945.77;1646021;87;21054;-66
2021/12/21 03:59:44;;;;;;;0.40;0.40;;;;;;;-5.92;59.67;95938.73;1646189;87;21021;-66
2021/12/21 04:02:13;;;;;;;3.47;1.23;;;;;;;-5.90;59.91;95946.11;1645853;87;21031;-66
2021/12/21 04:04:41;;;;;;;3.23;1.60;;;;;;;-5.97;58.96;95954.73;1646122;87;21061;-66
2021/12/21 04:07:08;;;;;;;5.27;2.77;;;;;;;-6.00;61.08;95954.17;1646059;87;21082;-66
2021/12/21 04:09:35;;;;;;;7.47;4.50;;;;;;;-6.02;61.46;95949.77;1646219;87;21014;-66
2021/12/21 04:12:03;;;;;;;5.17;2.70;;;;;;;-6.07;60.76;95946.08;1645869;87;21133;-66
2021/12/21 04:14:32;;;;;;;2.97;2.13;;;;;;;-6.08;60.76;95950.34;1645967;87;21472;-66
2021/12/21 04:16:59;;;;;;;1.83;1.10;;;;;;;-6.11;59.87;95956.63;1645982;87;21578;-66
2021/12/21 04:19:26;;;;;;;4.23;1.90;;;;;;;-6.20;58.75;95951.92;1646078;87;21050;-66
2021/12/21 04:21:52;;;;;;;0.90;0.73;;;;;;;-6.24;59.85;95961.54;1646067;87;21132;-66
2021/12/21 04:24:19;;;;;;;2.17;1.50;;;;;;;-6.33;59.76;95958.48;1645818;87;21090;-66
2021/12/21 04:26:45;;;;;;;1.27;0.87;;;;;;;-6.39;60.26;95965.89;1646365;87;21061;-66
2021/12/21 04:29:12;;;;;;;1.50;1.30;;;;;;;-6.44;59.24;95971.19;1646035;87;20999;-66
2021/12/21 04:31:38;;;;;;;1.47;1.00;;;;;;;-6.52;59.81;95974.64;1646189;87;21070;-66
2021/12/21 04:34:05;;;;;;;2.10;1.33;;;;;;;-6.58;59.79;95965.31;1646130;87;21500;-66
2021/12/21 04:36:32;;;;;;;2.70;1.93;;;;;;;-6.58;60.59;95972.61;1646049;87;21090;-66
2021/12/21 04:39:02;;;;;;;2.50;1.43;;;;;;;-6.62;60.39;95983.95;1645778;87;21558;-66
2021/12/21 04:41:28;;;;;;;2.57;1.93;;;;;;;-6.69;60.73;95989.55;1646012;87;21058;-66
2021/12/21 04:43:58;;;;;;;5.53;2.20;;;;;;;-6.72;61.13;96001.81;1645809;87;21097;-66
2021/12/21 04:46:26;;;;;;;3.83;1.83;;;;;;;-6.76;61.14;96010.14;1645955;87;21508;-66
2021/12/21 04:48:54;;;;;;;3.50;2.07;;;;;;;-6.77;61.30;96002.84;1646210;87;21061;-66
2021/12/21 04:51:21;;;;;;;7.00;4.80;;;;;;;-6.79;62.08;96014.70;1646142;87;21036;-66
2021/12/21 04:53:48;;;;;;;3.17;2.50;;;;;;;-6.79;62.50;96015.98;1646128;87;21518;-66
2021/12/21 04:56:14;;;;;;;3.07;1.87;;;;;;;-6.82;62.05;96014.95;1646149;87;21073;-66
2021/12/21 04:58:41;;;;;;;6.20;4.80;;;;;;;-6.83;62.50;96017.02;1645360;87;21097;-66
2021/12/21 05:01:08;;;;;;;2.70;1.57;;;;;;;-6.86;62.24;96022.86;1646234;87;21030;-66
2021/12/21 05:03:34;;;;;;;3.80;2.47;;;;;;;-6.94;62.05;96019.41;1646322;87;21046;-66
2021/12/21 05:06:01;;;;;;;2.57;1.50;;;;;;;-6.96;62.06;96025.73;1645901;87;21109;-66
2021/12/21 05:08:33;;;;;;;2.73;1.40;;;;;;;-7.05;62.19;96027.81;1646130;87;21018;-66
2021/12/21 05:11:01;;;;;;;2.90;1.27;;;;;;;-7.11;62.52;96035.14;1645614;86;21066;-66
2021/12/21 05:13:30;;;;;;;6.23;2.77;;;;;;;-7.12;63.43;96039.80;1645405;87;21050;-66
2021/12/21 05:15:57;;;;;;;1.63;1.13;;;;;;;-7.14;63.68;96039.70;1646167;87;21101;-66
2021/12/21 05:18:25;;;;;;;2.60;1.90;;;;;;;-7.13;63.48;96035.45;1646054;87;21066;-66
2021/12/21 05:20:52;;;;;;;4.40;2.10;;;;;;;-7.18;63.25;96041.64;1645718;87;21030;-66
2021/12/21 05:23:20;;;;;;;1.57;1.00;;;;;;;-7.22;63.42;96044.41;1646105;87;21081;-66
2021/12/21 05:25:47;;;;;;;3.77;2.20;;;;;;;-7.22;63.73;96050.81;1646102;87;21053;-66
2021/12/21 05:28:16;;;;;;;2.73;1.47;;;;;;;-7.25;64.43;96053.63;1645926;87;21042;-66
2021/12/21 05:30:43;;;;;;;3.93;1.87;;;;;;;-7.32;64.38;96060.48;1646249;87;21540;-66
2021/12/21 05:33:11;;;;;;;6.50;1.90;;;;;;;-7.37;64.48;96060.21;1646261;87;21006;-66
2021/12/21 05:35:38;;;;;;;4.97;2.47;;;;;;;-7.39;65.14;96059.23;1646097;87;21086;-66
2021/12/21 05:38:07;;;;;;;4.37;3.17;;;;;;;-7.49;65.38;96068.08;1646188;87;21139;-66
2021/12/21 05:40:38;;;;;;;5.33;3.00;;;;;;;-7.59;66.38;96067.47;1646172;87;21054;-66
2021/12/21 05:43:05;;;;;;;6.57;3.80;;;;;;;-7.59;66.17;96069.63;1645899;87;21018;-67
2021/12/21 05:45:32;;;;;;;7.83;4.17;;;;;;;-7.66;66.68;96070.06;1646130;87;21109;-66
2021/12/21 05:47:59;;;;;;;10.43;4.37;;;;;;;-7.69;66.64;96066.05;1646030;87;21504;-66
2021/12/21 05:50:26;;;;;;;13.87;5.17;;;;;;;-7.70;66.24;96070.70;1646140;87;21098;-66
2021/12/21 05:52:52;;;;;;;6.80;3.77;;;;;;;-7.75;66.42;96073.39;1646448;87;21018;-66
2021/12/21 05:55:21;;;;;;;6.63;2.53;;;;;;;-7.78;66.57;96071.93;1645973;87;21500;-65
2021/12/21 05:57:49;;;;;;;34.67;14.30;;;;;;;-7.78;67.59;96077.05;1646290;87;21069;-65
2021/12/21 06:00:20;;;;;;;10.87;3.27;;;;;;;-7.90;67.10;96083.20;1645944;87;21046;-65
2021/12/21 06:02:46;;;;;;;7.43;3.67;;;;;;;-8.00;68.68;96086.02;1645513;87;21014;-66
2021/12/21 06:05:13;;;;;;;5.40;2.97;;;;;;;-8.05;67.91;96085.73;1646063;87;21563;-66
2021/12/21 06:07:40;;;;;;;3.17;2.03;;;;;;;-8.17;68.62;96085.00;1645442;87;21101;-65
2021/12/21 06:10:17;;;;;;;8.47;3.80;;;;;;;-8.22;69.09;96101.76;1645101;87;21562;-64
2021/12/21 06:26:08;;;;;;;4.27;1.80;;;;;;;-8.17;68.23;96105.48;1640237;87;21607;-66
2021/12/21 06:28:33;;;;;;;2.37;1.20;;;;;;;-8.15;68.96;96096.22;1639614;87;21104;-65
2021/12/21 06:31:00;;;;;;;3.33;1.83;;;;;;;-8.15;68.45;96103.91;1640460;87;21577;-67
2021/12/21 06:33:27;;;;;;;3.53;1.33;;;;;;;-8.18;67.96;96109.25;1640421;87;21571;-64
2021/12/21 06:35:54;;;;;;;3.53;1.90;;;;;;;-8.15;67.96;96105.58;1640046;87;21110;-65
2021/12/21 06:38:21;;;;;;;4.97;2.73;;;;;;;-8.15;68.00;96116.70;1640260;86;21794;-66
2021/12/21 06:40:49;;;;;;;4.57;2.97;;;;;;;-8.18;68.21;96115.65;1660898;86;21042;-67
2021/12/21 06:43:17;;;;;;;4.63;1.83;;;;;;;-8.21;68.41;96123.11;1660930;86;21130;-66
2021/12/21 06:51:15;;;;;;;15.77;6.87;;;;;;;-7.98;68.97;96136.06;1661220;86;21075;-66
2021/12/21 06:53:41;;;;;;;34.73;15.70;;;;;;;-8.02;69.04;96146.49;1660921;86;21081;-64
2021/12/21 06:56:09;;;;;;;24.57;11.33;;;;;;;-8.08;69.38;96145.73;1661417;86;20999;-68
2021/12/21 06:58:36;;;;;;;21.50;7.87;;;;;;;-8.03;69.11;96144.73;1661672;86;21062;-69
2021/12/21 07:01:04;;;;;;;33.23;15.97;;;;;;;-7.88;68.90;96149.50;1661203;86;21062;-67
2021/12/21 07:03:32;;;;;;;21.13;9.93;;;;;;;-7.76;68.34;96140.77;1626183;88;21028;-67
2021/12/21 07:06:02;;;;;;;30.87;14.37;;;;;;;-7.73;68.35;96144.81;1633514;88;21115;-65
2021/12/21 07:08:33;;;;;;;19.20;10.03;;;;;;;-7.68;67.98;96137.01;1633984;87;21056;-66
2021/12/21 07:19:05;;;;;;;16.27;6.97;;;;;;;-7.18;67.14;96132.66;1633998;87;21515;-66
2021/12/21 07:21:32;;;;;;;11.23;6.30;;;;;;;-7.17;65.49;96135.70;1633724;88;21069;-64
2021/12/21 07:23:58;;;;;;;8.77;6.30;;;;;;;-7.32;65.09;96138.67;1633781;88;21084;-64
2021/12/21 07:26:26;;;;;;;17.83;10.43;;;;;;;-7.26;65.34;96146.70;1633622;88;21064;-64
2021/12/21 07:28:53;;;;;;;11.13;6.93;;;;;;;-7.18;65.03;96145.48;1633804;88;21028;-67
2021/12/21 07:31:20;;;;;;;8.70;4.70;;;;;;;-7.15;65.03;96146.94;1633649;87;21179;-68
2021/12/21 07:33:47;;;;;;;6.30;3.90;;;;;;;-7.04;65.39;96143.29;1633951;88;21586;-68
2021/12/21 07:36:14;;;;;;;11.47;6.43;;;;;;;-6.92;65.20;96138.39;1634060;88;21049;-67
2021/12/21 07:38:40;;;;;;;13.73;6.73;;;;;;;-6.78;65.00;96139.66;1633766;88;21602;-66
2021/12/21 07:41:07;;;;;;;16.43;7.80;;;;;;;-6.66;64.91;96144.97;1633740;88;21144;-68
2021/12/21 07:43:33;;;;;;;14.37;8.20;;;;;;;-6.68;64.73;96143.59;1634108;88;21045;-68
2021/12/21 07:46:00;;;;;;;39.30;25.13;;;;;;;-6.71;64.48;96138.29;1633366;87;21591;-65
2021/12/21 07:48:27;;;;;;;33.57;18.53;;;;;;;-6.62;64.67;96145.63;1633914;88;21037;-67
2021/12/21 07:50:55;;;;;;;15.83;9.47;;;;;;;-6.55;64.26;96147.34;1633092;88;21174;-67
2021/12/21 07:53:22;;;;;;;29.63;16.23;;;;;;;-6.46;64.32;96147.36;1633366;88;21554;-67
2021/12/21 07:55:49;;;;;;;33.93;19.23;;;;;;;-6.43;64.08;96152.65;1633614;88;21092;-67
2021/12/21 07:58:16;;;;;;;23.60;17.33;;;;;;;-6.37;64.36;96142.73;1633946;88;21000;-68
2021/12/21 08:00:43;;;;;;;10.23;6.50;;;;;;;-6.26;63.47;96142.91;1633961;87;21089;-66
2021/12/21 08:03:15;;;;;;;15.33;7.57;;;;;;;-6.21;61.23;96145.31;1634088;87;21071;-65
2021/12/21 08:05:40;;;;;;;23.87;12.33;;;;;;;-6.00;62.20;96163.96;1633516;88;21076;-65
2021/12/21 08:08:16;;;;;;;71.83;31.67;;;;;;;-5.89;60.46;96165.00;1633935;88;21068;-65
2021/12/21 08:10:45;;;;;;;17.27;8.63;;;;;;;-5.80;57.34;96158.16;1633314;88;21546;-66
2021/12/21 08:13:09;;;;;;;15.30;9.00;;;;;;;-5.58;59.27;96163.15;1633037;88;21037;-64
2021/12/21 08:15:36;;;;;;;77.13;45.03;;;;;;;-5.39;59.66;96168.45;1633283;87;21136;-66
2021/12/21 08:18:03;;;;;;;131.50;59.93;;;;;;;-5.14;56.80;96168.38;1633698;87;21053;-64
2021/12/21 08:20:29;;;;;;;28.03;15.23;;;;;;;-4.90;55.02;96172.19;1633949;88;21045;-65
2021/12/21 08:22:56;;;;;;;6.23;3.27;;;;;;;-4.58;55.50;96168.63;1633812;88;21064;-64
2021/12/21 08:25:25;;;;;;;2.00;1.10;;;;;;;-4.32;53.63;96171.55;1592094;88;21521;-64
2021/12/21 08:27:53;;;;;;;10.40;4.90;;;;;;;-4.21;53.90;96159.17;1634198;88;21131;-63
2021/12/21 08:30:20;;;;;;;7.17;4.07;;;;;;;-4.08;49.93;96162.81;1633476;88;21068;-63
2021/12/21 08:32:46;;;;;;;5.87;4.00;;;;;;;-3.89;49.44;96150.35;1633675;87;21072;-62
2021/12/21 08:35:13;;;;;;;1.43;1.33;;;;;;;-3.96;45.91;96148.30;1633574;88;21578;-66
2021/12/21 08:37:44;;;;;;;2.07;1.30;;;;;;;-4.10;43.92;96155.83;1632349;87;21021;-64
2021/12/21 08:40:12;;;;;;;10.23;4.83;;;;;;;-4.30;44.01;96166.08;1626196;87;21030;-66
2021/12/21 08:42:39;;;;;;;11.63;5.73;;;;;;;-4.20;46.62;96176.00;1606270;88;21031;-66
2021/12/21 08:45:07;;;;;;;15.00;10.40;;;;;;;-4.16;49.30;96173.15;1604906;89;21094;-65
2021/12/21 08:47:35;;;;;;;3.57;2.37;;;;;;;-4.17;49.86;96164.95;1606585;89;21106;-65
2021/12/21 08:50:05;;;;;;;7.13;2.40;;;;;;;-4.14;45.80;96165.09;1595768;89;21047;-65
2021/12/21 08:52:34;;;;;;;4.90;2.63;;;;;;;-4.01;46.54;96171.28;1639315;87;21023;-65
2021/12/21 08:55:05;;;;;;;2.20;1.33;;;;;;;-3.86;46.25;96161.20;1648415;87;21076;-65
2021/12/21 08:57:31;;;;;;;1.07;0.60;;;;;;;-3.71;47.00;96161.48;1644082;87;21585;-64
2021/12/21 08:59:58;;;;;;;1.67;1.13;;;;;;;-3.68;42.44;96161.16;1649369;87;20998;-64
2021/12/21 09:02:27;;;;;;;3.30;1.83;;;;;;;-3.61;42.79;96164.48;1648326;87;21035;-64
2021/12/21 09:04:53;;;;;;;4.73;1.27;;;;;;;-3.37;44.42;96165.58;1648190;87;21042;-67
2021/12/21 09:07:20;;;;;;;5.33;3.37;;;;;;;-3.31;42.37;96155.92;1648818;87;21089;-67
2021/12/21 09:09:46;;;;;;;16.93;6.93;;;;;;;-3.21;44.20;96157.20;1649010;87;21165;-68
2021/12/21 09:12:13;;;;;;;11.50;4.47;;;;;;;-3.18;45.73;96159.91;1649749;86;21058;-66
2021/12/21 09:14:39;;;;;;;2.57;1.43;;;;;;;-3.13;46.15;96151.54;1658483;86;21050;-65
2021/12/21 09:17:07;;;;;;;2.53;1.60;;;;;;;-3.13;44.19;96154.54;1657963;86;21054;-65
2021/12/21 09:19:33;;;;;;;2.73;2.00;;;;;;;-3.08;44.50;96151.33;1652798;86;21145;-65
2021/12/21 09:22:01;;;;;;;4.60;2.53;;;;;;;-2.94;44.81;96154.51;1636463;87;21555;-65
2021/12/21 09:24:29;;;;;;;6.27;3.87;;;;;;;-2.72;45.39;96154.09;1657952;86;21090;-70
2021/12/21 09:26:55;;;;;;;3.73;1.73;;;;;;;-2.50;46.24;96151.98;1651261;86;21058;-67
2021/12/21 09:29:21;;;;;;;4.17;1.60;;;;;;;-2.26;45.14;96134.88;1649645;87;21053;-65
2021/12/21 09:31:48;;;;;;;2.30;1.20;;;;;;;-2.08;44.82;96128.66;1646059;87;21098;-66
2021/12/21 09:34:14;;;;;;;4.53;2.03;;;;;;;-2.09;42.98;96129.08;1623713;88;21073;-65
2021/12/21 09:36:41;;;;;;;4.30;2.27;;;;;;;-2.23;43.49;96137.57;1646075;87;21038;-64
2021/12/21 09:39:07;;;;;;;2.53;1.60;;;;;;;-1.94;44.22;96152.05;1646152;87;21093;-67
2021/12/21 09:41:34;;;;;;;2.67;1.40;;;;;;;-1.80;44.19;96161.61;1623120;88;21112;-66
2021/12/21 09:44:04;;;;;;;4.60;3.03;;;;;;;-1.70;43.79;96178.37;1645924;87;21493;-65
2021/12/21 09:46:31;;;;;;;5.57;3.00;;;;;;;-1.37;44.28;96172.26;1623136;88;21531;-63
2021/12/21 09:48:57;;;;;;;3.27;1.70;;;;;;;-1.11;43.27;96170.20;1647440;87;21049;-70
2021/12/21 09:51:23;;;;;;;4.47;2.13;;;;;;;-1.20;42.59;96168.99;1653574;87;21113;-67
2021/12/21 09:53:51;;;;;;;5.77;3.00;;;;;;;-1.10;43.03;96168.07;1642668;87;21100;-67
2021/12/21 09:56:18;;;;;;;4.37;2.60;;;;;;;-1.20;43.52;96168.58;1654938;87;21124;-63
2021/12/21 09:58:45;;;;;;;4.67;3.70;;;;;;;-1.18;43.21;96170.81;1653181;87;21071;-66
2021/12/21 10:01:12;;;;;;;12.30;4.30;;;;;;;-1.25;44.27;96174.42;1620349;88;21062;-66
2021/12/21 10:03:38;;;;;;;7.13;4.10;;;;;;;-1.36;44.71;96179.19;1614858;88;21737;-67
2021/12/21 10:06:15;;;;;;;3.70;2.60;;;;;;;-1.34;44.49;96167.19;1597414;90;21219;-67
2021/12/21 10:08:39;;;;;;;4.08;2.75;;;;;;;-1.42;46.17;96172.09;1596647;90;21128;-66
2021/12/21 10:11:09;;;;;;;4.63;2.30;;;;;;;-1.38;46.62;96166.20;1598796;88;21140;-67
2021/12/21 10:13:37;;;;;;;8.70;4.50;;;;;;;-1.64;45.75;96163.97;1643405;87;21586;-66
2021/12/21 10:16:06;;;;;;;6.07;3.00;;;;;;;-1.72;45.94;96165.78;1629830;87;21678;-67
2021/12/21 10:18:41;;;;;;;2.77;1.63;;;;;;;-1.72;47.24;96165.78;1600294;89;21027;-67
2021/12/21 10:21:12;;;;;;;5.47;2.63;;;;;;;-1.73;47.16;96165.33;1609242;89;21055;-67
2021/12/21 10:23:43;;;;;;;4.63;3.10;;;;;;;-1.88;48.36;96166.91;1609177;89;21058;-67
2021/12/21 10:26:19;;;;;;;6.07;3.73;;;;;;;-1.88;48.69;96167.79;1609260;89;21102;-67
2021/12/21 10:28:50;;;;;;;5.57;2.93;;;;;;;-1.83;49.57;96167.97;1609236;89;21521;-66
2021/12/21 10:31:42;;;;;;;5.13;2.70;;;;;;;-1.85;48.61;96168.31;1609017;89;21100;-67
2021/12/21 10:34:11;;;;;;;4.77;3.10;;;;;;;-1.85;49.07;96160.56;1617097;89;21110;-66
2021/12/21 10:36:43;;;;;;;5.30;3.57;;;;;;;-1.87;49.38;96157.91;1582621;90;21085;-67
2021/12/21 10:39:12;;;;;;;5.40;3.03;;;;;;;-1.96;50.47;96154.98;1610834;89;21110;-67
2021/12/21 10:41:44;;;;;;;3.70;2.50;;;;;;;-1.91;50.09;96162.92;1611400;89;21058;-66
2021/12/21 10:44:18;;;;;;;38.57;19.07;;;;;;;-1.37;50.06;96158.90;1611541;89;21709;-67
2021/12/21 10:46:49;;;;;;;5.33;3.30;;;;;;;-0.73;48.40;96155.11;1611260;89;21129;-67
2021/12/21 10:49:19;;;;;;;9.53;8.47;;;;;;;-0.32;46.92;96150.81;1611170;89;21130;-67
2021/12/21 10:52:10;;;;;;;5.07;3.30;;;;;;;0.23;45.57;96139.55;1611411;89;21066;-68
2021/12/21 10:54:44;;;;;;;6.00;3.50;;;;;;;1.12;44.59;96140.75;1611134;89;21086;-69
2021/12/21 10:57:21;;;;;;;6.13;5.53;;;;;;;2.10;43.23;96134.48;1611244;89;21180;-68
2021/12/21 10:59:59;;;;;;;3.33;2.17;;;;;;;2.63;40.69;96133.45;1611324;89;21520;-68
2021/12/21 11:02:31;;;;;;;3.37;2.20;;;;;;;2.41;40.55;96128.64;1611274;89;21062;-68
2021/12/21 11:05:08;;;;;;;3.83;2.90;;;;;;;1.83;38.64;96132.98;1611914;89;21505;-67
2021/12/21 11:07:43;;;;;;;17.50;13.77;;;;;;;1.28;41.03;96129.89;1612149;89;21039;-68
2021/12/21 11:10:14;;;;;;;5.53;3.40;;;;;;;0.83;42.65;96134.75;1611591;89;21082;-68
2021/12/21 11:12:53;;;;;;;4.87;3.47;;;;;;;0.45;42.89;96137.15;1611983;89;21122;-68
2021/12/21 11:15:30;;;;;;;4.77;3.20;;;;;;;-0.11;43.43;96129.85;1612281;89;21043;-68
2021/12/21 11:17:59;;;;;;;2.20;1.70;;;;;;;-0.33;45.76;96146.44;1611941;89;21520;-68
2021/12/21 11:20:27;;;;;;;5.33;2.60;;;;;;;-0.16;44.76;96143.97;1612154;89;21054;-68
2021/12/21 11:22:55;;;;;;;3.80;2.10;;;;;;;0.15;45.21;96136.73;1611780;89;21063;-69
2021/12/21 11:25:23;;;;;;;4.27;2.83;;;;;;;0.27;44.11;96137.49;1611935;89;21030;-68
2021/12/21 11:27:51;;;;;;;4.50;2.43;;;;;;;0.22;44.67;96136.48;1612300;89;21050;-68
2021/12/21 11:30:23;;;;;;;4.30;2.40;;;;;;;0.10;45.10;96147.39;1612045;89;21078;-69
2021/12/21 11:32:52;;;;;;;4.87;2.70;;;;;;;-0.07;45.28;96146.86;1612147;89;21094;-68
2021/12/21 11:37:58;;;;;;;10.57;4.23;;;;;;;-0.32;45.15;96148.22;1612007;89;21552;-67
2021/12/21 11:40:29;;;;;;;10.13;5.50;;;;;;;-0.57;47.26;96156.91;1611626;89;21062;-68
2021/12/21 11:43:28;;;;;;;3.60;2.60;;;;;;;-0.74;47.52;96161.52;1592296;89;21062;-67
2021/12/21 11:46:06;;;;;;;5.83;3.33;;;;;;;-1.06;48.24;96165.58;1611573;89;21110;-67
2021/12/21 11:48:49;;;;;;;2.90;2.30;;;;;;;-1.34;48.99;96159.00;1612132;89;21039;-67
2021/12/21 11:51:16;;;;;;;7.65;3.83;;;;;;;-1.71;48.79;96158.09;1612175;89;21038;-67
2021/12/21 11:53:43;;;;;;;3.83;3.07;;;;;;;-1.99;49.85;96151.87;1611988;89;21063;-67
2021/12/21 11:56:17;;;;;;;7.40;3.50;;;;;;;-2.26;52.24;96163.72;1612022;89;21082;-67
2021/12/21 11:58:44;;;;;;;23.00;11.37;;;;;;;-2.21;53.00;96164.37;1612134;89;21544;-67
2021/12/21 12:01:23;;;;;;;16.10;9.53;;;;;;;-2.21;52.42;96168.25;1611780;89;21070;-68
2021/12/21 12:04:03;;;;;;;9.03;4.03;;;;;;;-2.05;52.97;96164.96;1612008;89;21046;-67
2021/12/21 12:06:52;;;;;;;24.00;11.43;;;;;;;-1.89;52.78;96161.25;1611931;89;21050;-68
2021/12/21 12:09:32;;;;;;;8.80;4.80;;;;;;;-1.78;52.34;96156.09;1611904;89;21132;-67
2021/12/21 12:12:12;;;;;;;17.77;9.50;;;;;;;-1.60;52.12;96160.65;1611989;89;21058;-67
2021/12/21 12:14:42;;;;;;;7.07;4.50;;;;;;;-1.21;50.17;96148.70;1602265;89;21075;-68
2021/12/21 12:17:18;;;;;;;10.80;7.10;;;;;;;-1.23;49.41;96153.36;1602825;89;21524;-68
2021/12/21 12:20:09;;;;;;;15.67;10.23;;;;;;;-1.04;49.27;96146.68;1603233;89;21035;-68
2021/12/21 12:22:45;;;;;;;8.23;5.17;;;;;;;-0.70;49.57;96140.08;1601879;89;21068;-68
2021/12/21 12:25:23;;;;;;;8.60;5.20;;;;;;;-0.49;49.04;96140.77;1602877;89;21073;-68
2021/12/21 12:27:52;;;;;;;10.57;5.83;;;;;;;-0.39;49.37;96138.06;1602577;89;21123;-68
2021/12/21 12:30:24;;;;;;;7.27;2.87;;;;;;;-0.75;47.56;96150.70;1603016;89;21063;-68
2021/12/21 12:33:01;;;;;;;5.90;2.70;;;;;;;-1.10;48.50;96141.30;1602736;89;21071;-68
2021/12/21 12:35:32;;;;;;;4.63;3.30;;;;;;;-1.40;49.15;96152.33;1602375;89;21123;-68
2021/12/21 12:38:08;;;;;;;4.37;3.30;;;;;;;-1.67;49.57;96147.43;1602608;89;21074;-67
2021/12/21 12:40:39;;;;;;;6.63;3.30;;;;;;;-1.73;50.03;96143.34;1601631;89;21119;-68
2021/12/21 12:43:20;;;;;;;3.97;2.43;;;;;;;-1.46;50.74;96140.47;1602686;89;21566;-68
2021/12/21 12:45:54;;;;;;;3.77;1.70;;;;;;;-1.63;50.15;96144.14;1586553;89;21082;-67